createdAt,value
2018-02-25T00:02:11.675Z,69.60
2018-02-25T00:04:39.740Z,69.40
2018-02-25T00:07:07.795Z,69.80
2018-02-25T00:09:36.824Z,69.40
2018-02-25T00:12:05.759Z,69.40
2018-02-25T00:14:33.823Z,69.30
2018-02-25T00:17:01.891Z,69.30
2018-02-25T00:19:33.687Z,69.80
2018-02-25T00:22:01.735Z,70.10
2018-02-25T00:24:31.703Z,70.90
2018-02-25T00:26:59.747Z,70.90
2018-02-25T00:29:30.507Z,71.80
2018-02-25T00:32:03.331Z,71.80
2018-02-25T00:34:33.043Z,72.10
2018-02-25T00:37:01.212Z,72.70
2018-02-25T00:39:30.631Z,73.30
2018-02-25T00:41:59.652Z,73.60
2018-02-25T00:44:31.059Z,74.30
2018-02-25T00:47:06.737Z,74.30
2018-02-25T00:49:41.375Z,75.30
2018-02-25T00:52:11.371Z,75.20
2018-02-25T00:54:45.667Z,76.10
2018-02-25T00:57:14.864Z,76.00
2018-02-25T00:59:43.250Z,76.30
2018-02-25T01:02:13.651Z,74.90
2018-02-25T01:04:41.703Z,73.40
2018-02-25T01:07:14.667Z,69.20
2018-02-25T01:09:42.720Z,69.00
2018-02-25T01:12:12.460Z,67.30
2018-02-25T01:14:41.423Z,67.20
2018-02-25T01:17:20.223Z,67.00
2018-02-25T01:20:00.623Z,67.00
2018-02-25T01:22:28.699Z,67.50
2018-02-25T01:24:59.150Z,66.60
2018-02-25T01:27:27.583Z,66.40
2018-02-25T01:29:59.411Z,65.90
2018-02-25T01:32:33.063Z,65.90
2018-02-25T01:35:02.039Z,65.00
2018-02-25T01:37:31.059Z,65.90
2018-02-25T01:40:01.067Z,65.50
2018-02-25T01:42:33.747Z,64.30
2018-02-25T01:45:04.079Z,63.70
2018-02-25T01:47:53.343Z,64.40
2018-02-25T01:50:28.399Z,65.10
2018-02-25T01:52:56.467Z,65.60
2018-02-25T01:55:33.935Z,66.20
2018-02-25T01:58:02.075Z,66.00
2018-02-25T02:00:31.115Z,66.10
2018-02-25T02:02:59.159Z,66.50
2018-02-25T02:05:27.230Z,66.30
2018-02-25T02:07:55.279Z,66.70
2018-02-25T02:10:28.883Z,67.50
2018-02-25T02:13:14.991Z,67.40
2018-02-25T02:15:43.251Z,67.70
2018-02-25T02:18:13.395Z,68.20
2018-02-25T02:20:44.075Z,68.00
2018-02-25T02:23:16.619Z,67.80
2018-02-25T02:25:46.647Z,67.50
2018-02-25T02:28:14.715Z,67.80
2018-02-25T02:30:42.756Z,67.90
2018-02-25T02:33:27.844Z,68.00
2018-02-25T02:35:55.918Z,67.40
2018-02-25T02:38:25.554Z,68.60
2018-02-25T02:40:55.479Z,67.50
2018-02-25T02:43:33.379Z,67.70
2018-02-25T02:46:01.523Z,67.70
2018-02-25T02:48:30.194Z,67.50
2018-02-25T02:51:02.823Z,67.50
2018-02-25T02:53:36.055Z,67.20
2018-02-25T02:56:05.019Z,67.00
2018-02-25T02:58:34.023Z,67.90
2018-02-25T03:01:03.007Z,67.80
2018-02-25T03:03:37.263Z,68.40
2018-02-25T03:06:05.347Z,68.40
2018-02-25T03:08:46.891Z,68.40
2018-02-25T03:11:15.883Z,67.80
2018-02-25T03:13:46.595Z,67.80
2018-02-25T03:16:34.968Z,66.70
2018-02-25T03:19:19.967Z,67.20
2018-02-25T03:21:48.034Z,67.80
2018-02-25T03:24:17.077Z,68.50
2018-02-25T03:26:48.179Z,67.80
2018-02-25T03:29:22.627Z,67.80
2018-02-25T03:32:00.303Z,68.30
2018-02-25T03:34:35.331Z,67.90
2018-02-25T03:37:20.963Z,68.50
2018-02-25T03:39:54.662Z,69.50
2018-02-25T03:42:23.046Z,70.50
2018-02-25T03:44:53.134Z,70.70
2018-02-25T03:47:31.339Z,70.80
2018-02-25T03:50:05.135Z,72.10
2018-02-25T03:52:34.991Z,71.30
2018-02-25T03:55:06.404Z,71.70
2018-02-25T03:57:35.430Z,71.90
2018-02-25T04:00:07.199Z,72.30
2018-02-25T04:02:46.914Z,72.10
2018-02-25T04:05:32.271Z,72.40
2018-02-25T04:08:08.199Z,72.10
2018-02-25T04:10:42.838Z,72.70
2018-02-25T04:13:14.978Z,73.10
2018-02-25T04:15:44.078Z,73.20
2018-02-25T04:18:18.210Z,74.00
2018-02-25T04:20:50.307Z,74.50
2018-02-25T04:23:26.718Z,75.00
2018-02-25T04:26:14.745Z,74.60
2018-02-25T04:28:47.403Z,74.60
2018-02-25T04:31:27.780Z,75.40
2018-02-25T04:34:00.792Z,74.80
2018-02-25T04:36:33.574Z,75.70
2018-02-25T04:39:01.654Z,75.20
2018-02-25T04:41:29.886Z,75.10
2018-02-25T04:43:59.895Z,74.10
2018-02-25T04:46:28.898Z,74.60
2018-02-25T04:49:00.438Z,75.00
2018-02-25T04:51:28.494Z,75.10
2018-02-25T04:53:58.306Z,75.60
2018-02-25T04:56:27.158Z,75.60
2018-02-25T04:59:05.122Z,75.50
2018-02-25T05:01:38.130Z,74.40
2018-02-25T05:04:11.906Z,73.70
2018-02-25T05:06:43.353Z,74.40
2018-02-25T05:09:17.287Z,74.40
2018-02-25T05:11:45.562Z,74.90
2018-02-25T05:14:14.546Z,75.30
2018-02-25T05:16:44.574Z,75.30
2018-02-25T05:19:14.518Z,75.60
2018-02-25T05:21:42.581Z,75.30
2018-02-25T05:24:14.385Z,75.40
2018-02-25T05:26:44.114Z,76.70
2018-02-25T05:29:14.162Z,76.60
2018-02-25T05:31:43.102Z,77.10
2018-02-25T05:34:14.850Z,77.40
2018-02-25T05:36:43.646Z,76.90
2018-02-25T05:39:19.546Z,76.80
2018-02-25T05:41:51.234Z,76.70
2018-02-25T05:44:21.070Z,77.10
2018-02-25T05:46:49.130Z,77.00
2018-02-25T05:49:18.925Z,78.50
2018-02-25T05:51:53.393Z,77.70
2018-02-25T05:54:24.572Z,78.60
2018-02-25T05:56:52.602Z,77.80
2018-02-25T05:59:27.806Z,77.60
2018-02-25T06:01:56.606Z,78.40
2018-02-25T06:04:26.521Z,78.30
2018-02-25T06:06:55.469Z,78.40
2018-02-25T06:09:23.490Z,77.90
2018-02-25T06:11:53.458Z,77.40
2018-02-25T06:14:21.490Z,77.50
2018-02-25T06:16:50.509Z,77.40
2018-02-25T06:19:19.510Z,77.20
2018-02-25T06:21:51.081Z,77.20
2018-02-25T06:24:26.737Z,77.00
2018-02-25T06:26:59.746Z,76.80
2018-02-25T06:29:32.390Z,76.80
2018-02-25T06:32:01.193Z,76.40
2018-02-25T06:34:29.996Z,76.60
2018-02-25T06:36:58.023Z,76.50
2018-02-25T06:39:26.042Z,76.40
2018-02-25T06:41:54.086Z,76.70
2018-02-25T06:44:27.013Z,76.80
2018-02-25T06:46:55.057Z,76.70
2018-02-25T06:49:23.973Z,76.00
2018-02-25T06:52:00.106Z,76.00
2018-02-25T06:54:35.006Z,75.70
2018-02-25T06:57:07.273Z,75.60
2018-02-25T06:59:35.347Z,75.50
2018-02-25T07:02:05.213Z,74.40
2018-02-25T07:04:38.889Z,74.70
2018-02-25T07:07:09.618Z,74.00
2018-02-25T07:09:37.649Z,74.00
2018-02-25T07:12:05.670Z,73.40
2018-02-25T07:14:33.694Z,74.70
2018-02-25T07:17:01.733Z,73.30
2018-02-25T07:19:34.441Z,72.00
2018-02-25T07:22:03.565Z,71.90
2018-02-25T07:24:32.345Z,72.20
2018-02-25T07:27:01.134Z,72.70
2018-02-25T07:29:36.111Z,71.60
2018-02-25T07:32:06.030Z,71.70
2018-02-25T07:34:34.057Z,71.70
2018-02-25T07:37:02.082Z,72.60
2018-02-25T07:39:38.329Z,71.90
2018-02-25T07:42:25.661Z,70.80
2018-02-25T07:44:59.969Z,70.50
2018-02-25T07:47:39.293Z,69.80
2018-02-25T07:50:11.018Z,70.10
2018-02-25T07:52:45.569Z,68.80
2018-02-25T07:55:37.188Z,68.70
2018-02-25T07:58:05.209Z,69.10
2018-02-25T08:00:33.237Z,68.40
2018-02-25T08:03:15.137Z,68.10
2018-02-25T08:05:56.969Z,67.90
2018-02-25T08:08:28.613Z,67.60
2018-02-25T08:11:00.349Z,65.70
2018-02-25T08:13:32.175Z,65.60
2018-02-25T08:16:00.933Z,65.00
2018-02-25T08:18:30.723Z,64.40
2018-02-25T08:20:59.637Z,64.30
2018-02-25T08:23:34.333Z,63.20
2018-02-25T08:26:09.888Z,63.10
2018-02-25T08:28:44.783Z,61.00
2018-02-25T08:31:12.832Z,59.60
2018-02-25T08:33:50.756Z,60.60
2018-02-25T08:36:23.053Z,58.70
2018-02-25T08:38:57.057Z,59.60
2018-02-25T08:41:26.017Z,58.00
2018-02-25T08:43:54.038Z,57.30
2018-02-25T08:46:26.013Z,57.60
2018-02-25T08:48:56.158Z,57.40
2018-02-25T08:51:26.133Z,57.70
2018-02-25T08:53:54.161Z,57.60
2018-02-25T08:56:22.185Z,54.40
2018-02-25T08:58:59.069Z,54.40
2018-02-25T09:01:28.753Z,54.40
2018-02-25T09:03:56.961Z,54.40
2018-02-25T09:06:25.769Z,52.80
2018-02-25T09:08:53.788Z,52.80
2018-02-25T09:11:22.786Z,52.00
2018-02-25T09:13:51.785Z,53.40
2018-02-25T09:16:29.841Z,54.30
2018-02-25T09:18:58.861Z,52.40
2018-02-25T09:21:33.438Z,53.70
2018-02-25T09:24:01.457Z,52.20
2018-02-25T09:26:39.400Z,51.30
2018-02-25T09:29:13.948Z,51.00
2018-02-25T09:31:54.592Z,48.40
2018-02-25T09:34:25.804Z,46.50
2018-02-25T09:36:59.544Z,43.80
2018-02-25T09:39:27.572Z,41.30
2018-02-25T09:41:55.593Z,38.50
2018-02-25T09:44:23.645Z,37.30
2018-02-25T09:46:56.216Z,35.80
2018-02-25T09:52:18.472Z,36.70
2018-02-25T09:54:46.508Z,35.50
2018-02-25T09:57:14.532Z,34.10
2018-02-25T09:59:44.484Z,33.60
2018-02-25T10:02:16.416Z,33.70
2018-02-25T10:04:58.572Z,33.60
2018-02-25T10:07:30.808Z,30.20
2018-02-25T10:09:58.837Z,29.50
2018-02-25T10:12:46.676Z,27.60
2018-02-25T10:15:14.712Z,29.00
2018-02-25T10:17:47.480Z,27.80
2018-02-25T10:20:17.472Z,27.80
2018-02-25T10:22:49.352Z,28.80
2018-02-25T10:25:17.380Z,28.80
2018-02-25T10:27:45.396Z,27.30
2018-02-25T10:30:14.312Z,27.40
2018-02-25T10:32:52.272Z,30.10
2018-02-25T10:35:33.016Z,30.10
2018-02-25T10:38:04.188Z,29.60
2018-02-25T10:40:33.116Z,30.50
2018-02-25T10:43:02.811Z,29.20
2018-02-25T10:45:42.684Z,29.80
2018-02-25T10:48:11.632Z,29.80
2018-02-25T10:50:41.540Z,29.50
2018-02-25T10:53:09.560Z,27.40
2018-02-25T10:55:41.368Z,28.60
2018-02-25T10:58:11.388Z,28.00
2018-02-25T11:00:41.315Z,28.30
2018-02-25T11:03:10.320Z,26.30
2018-02-25T11:05:45.740Z,26.10
2018-02-25T11:08:13.764Z,26.10
2018-02-25T11:10:52.428Z,25.30
2018-02-25T11:13:23.795Z,26.70
2018-02-25T11:15:53.828Z,25.20
2018-02-25T11:18:30.272Z,25.30
2018-02-25T11:20:58.356Z,25.00
2018-02-25T11:23:27.191Z,26.60
2018-02-25T11:25:58.948Z,26.60
2018-02-25T11:28:33.343Z,25.30
2018-02-25T11:31:02.343Z,26.70
2018-02-25T11:33:30.369Z,26.70
2018-02-25T11:35:58.392Z,26.60
2018-02-25T11:38:27.343Z,25.40
2018-02-25T11:40:56.176Z,24.90
2018-02-25T11:43:24.825Z,24.80
2018-02-25T11:45:58.228Z,24.40
2018-02-25T11:48:27.073Z,24.40
2018-02-25T11:50:56.936Z,24.70
2018-02-25T11:53:28.492Z,24.70
2018-02-25T11:55:57.376Z,24.60
2018-02-25T11:58:26.742Z,24.60
2018-02-25T12:00:58.779Z,22.10
2018-02-25T12:03:27.964Z,20.90
2018-02-25T12:05:58.036Z,20.90
2018-02-25T12:08:31.720Z,21.80
2018-02-25T12:10:59.796Z,21.80
2018-02-25T12:13:27.832Z,22.10
2018-02-25T12:15:55.896Z,22.90
2018-02-25T12:18:27.592Z,21.00
2018-02-25T12:20:57.556Z,19.60
2018-02-25T12:23:29.164Z,19.10
2018-02-25T12:25:58.168Z,20.70
2018-02-25T12:28:27.952Z,20.60
2018-02-25T12:30:57.880Z,20.60
2018-02-25T12:33:25.904Z,21.00
2018-02-25T12:35:56.883Z,21.10
2018-02-25T12:38:25.864Z,21.50
2018-02-25T12:40:54.795Z,22.20
2018-02-25T12:43:29.248Z,22.80
2018-02-25T12:45:57.292Z,22.80
2018-02-25T12:48:25.344Z,23.70
2018-02-25T12:50:58.572Z,20.80
2018-02-25T12:53:26.603Z,20.80
2018-02-25T12:55:58.428Z,21.30
2018-02-25T12:58:31.230Z,21.20
2018-02-25T13:01:05.608Z,22.00
2018-02-25T13:03:35.544Z,20.80
2018-02-25T13:06:04.479Z,21.10
2018-02-25T13:08:33.313Z,20.10
2018-02-25T13:11:01.311Z,20.00
2018-02-25T13:13:29.339Z,20.20
2018-02-25T13:15:58.268Z,19.20
2018-02-25T13:18:29.516Z,18.40
2018-02-25T13:20:57.580Z,19.10
2018-02-25T13:23:32.432Z,19.10
2018-02-25T13:26:01.235Z,17.40
2018-02-25T13:28:29.275Z,17.30
2018-02-25T13:30:57.315Z,18.50
2018-02-25T13:33:27.395Z,19.30
2018-02-25T13:35:59.015Z,19.00
2018-02-25T13:38:30.875Z,18.10
2018-02-25T13:40:58.968Z,18.40
2018-02-25T13:43:27.764Z,19.10
2018-02-25T13:45:55.812Z,19.10
2018-02-25T13:48:34.991Z,19.40
2018-02-25T13:51:03.024Z,19.40
2018-02-25T13:53:36.703Z,19.10
2018-02-25T13:56:05.619Z,18.70
2018-02-25T13:58:46.915Z,18.40
2018-02-25T14:01:16.895Z,18.40
2018-02-25T14:03:46.904Z,18.80
2018-02-25T14:06:14.935Z,18.50
2018-02-25T14:08:42.955Z,18.80
2018-02-25T14:11:12.863Z,18.90
2018-02-25T14:13:43.931Z,18.80
2018-02-25T14:16:12.707Z,18.10
2018-02-25T14:18:43.395Z,18.20
2018-02-25T14:21:17.184Z,18.20
2018-02-25T14:23:55.084Z,18.20
2018-02-25T14:26:26.319Z,18.00
2018-02-25T14:28:54.343Z,17.90
2018-02-25T14:31:33.739Z,18.10
2018-02-25T14:34:16.467Z,19.30
2018-02-25T14:36:48.147Z,20.90
2018-02-25T14:39:16.171Z,20.80
2018-02-25T14:41:44.195Z,20.40
2018-02-25T14:44:12.247Z,18.20
2018-02-25T14:46:42.323Z,18.40
2018-02-25T14:49:11.293Z,18.60
2018-02-25T14:51:46.056Z,18.40
2018-02-25T14:54:20.883Z,19.50
2018-02-25T14:56:53.932Z,20.80
2018-02-25T15:02:20.371Z,19.70
2018-02-25T15:04:50.287Z,19.60
2018-02-25T15:07:22.787Z,19.90
2018-02-25T15:09:51.839Z,19.80
2018-02-25T15:12:20.739Z,19.10
2018-02-25T15:14:49.711Z,20.00
2018-02-25T15:17:17.759Z,19.70
2018-02-25T15:19:47.719Z,19.40
2018-02-25T15:22:20.683Z,19.10
2018-02-25T15:24:53.574Z,19.80
2018-02-25T15:27:29.291Z,19.80
2018-02-25T15:29:57.295Z,20.50
2018-02-25T15:32:25.310Z,20.70
2018-02-25T15:34:54.242Z,20.40
2018-02-25T15:37:35.491Z,20.60
2018-02-25T15:40:05.443Z,20.30
2018-02-25T15:42:37.503Z,20.70
2018-02-25T15:45:09.587Z,20.80
2018-02-25T15:47:44.174Z,20.50
2018-02-25T15:50:15.339Z,20.30
2018-02-25T15:52:44.391Z,20.70
2018-02-25T15:55:12.411Z,21.40
2018-02-25T15:57:58.115Z,23.90
2018-02-25T16:00:28.815Z,24.40
2018-02-25T16:02:57.743Z,24.40
2018-02-25T16:05:31.207Z,24.40
2018-02-25T16:07:59.243Z,24.30
2018-02-25T16:10:30.911Z,25.30
2018-02-25T16:12:58.947Z,25.00
2018-02-25T16:15:27.891Z,25.10
2018-02-25T16:17:57.799Z,26.60
2018-02-25T16:20:25.831Z,26.50
2018-02-25T16:22:53.871Z,25.40
2018-02-25T16:25:24.551Z,26.50
2018-02-25T16:27:57.186Z,27.40
2018-02-25T16:30:25.966Z,27.10
2018-02-25T16:32:54.759Z,27.50
2018-02-25T16:35:32.070Z,27.20
2018-02-25T16:38:01.010Z,27.20
2018-02-25T16:40:33.167Z,26.60
2018-02-25T16:43:10.878Z,27.20
2018-02-25T16:45:40.987Z,28.00
2018-02-25T16:48:12.027Z,28.00
2018-02-25T16:50:45.914Z,28.30
2018-02-25T16:53:13.959Z,28.40
2018-02-25T16:55:52.531Z,29.20
2018-02-25T16:58:25.674Z,29.10
2018-02-25T17:00:55.639Z,29.40
2018-02-25T17:03:24.686Z,30.00
2018-02-25T17:05:57.582Z,29.90
2018-02-25T17:08:25.600Z,29.80
2018-02-25T17:10:57.966Z,30.80
2018-02-25T17:13:27.863Z,30.10
2018-02-25T17:15:56.855Z,30.30
2018-02-25T17:18:25.771Z,30.30
2018-02-25T17:20:54.551Z,30.90
2018-02-25T17:23:29.090Z,30.80
2018-02-25T17:25:57.874Z,31.40
2018-02-25T17:28:31.983Z,31.60
2018-02-25T17:31:15.263Z,31.60
2018-02-25T17:33:44.207Z,32.20
2018-02-25T17:36:14.119Z,32.40
2018-02-25T17:38:44.834Z,32.80
2018-02-25T17:41:18.463Z,32.80
2018-02-25T17:43:47.383Z,33.20
2018-02-25T17:46:17.143Z,34.00
2018-02-25T17:48:56.847Z,34.40
2018-02-25T17:51:24.866Z,34.40
2018-02-25T17:53:55.566Z,35.20
2018-02-25T17:56:23.591Z,35.20
2018-02-25T17:58:51.679Z,35.30
2018-02-25T18:01:22.359Z,36.90
2018-02-25T18:03:57.820Z,36.70
2018-02-25T18:06:36.802Z,36.90
2018-02-25T18:09:10.791Z,36.90
2018-02-25T18:11:56.230Z,37.60
2018-02-25T18:14:28.458Z,38.00
2018-02-25T18:17:03.307Z,38.00
2018-02-25T18:19:33.241Z,37.80
2018-02-25T18:22:09.106Z,39.00
2018-02-25T18:24:38.079Z,39.00
2018-02-25T18:27:20.183Z,38.30
2018-02-25T18:29:48.958Z,39.50
2018-02-25T18:32:18.762Z,39.30
2018-02-25T18:34:47.775Z,39.80
2018-02-25T18:37:17.675Z,40.00
2018-02-25T18:39:48.442Z,40.00
2018-02-25T18:42:17.378Z,40.00
2018-02-25T18:44:46.390Z,40.50
2018-02-25T18:47:26.442Z,40.50
2018-02-25T18:50:01.884Z,42.20
2018-02-25T18:52:33.330Z,41.50
2018-02-25T18:55:11.134Z,42.20
2018-02-25T18:57:51.534Z,42.30
2018-02-25T19:00:23.850Z,42.00
2018-02-25T19:02:56.538Z,42.10
2018-02-25T19:05:24.594Z,41.90
2018-02-25T19:08:05.414Z,41.60
2018-02-25T19:10:34.370Z,42.20
2018-02-25T19:13:14.094Z,42.40
2018-02-25T19:15:42.134Z,42.30
2018-02-25T19:18:17.901Z,42.40
2018-02-25T19:20:47.859Z,42.40
2018-02-25T19:23:17.941Z,41.80
2018-02-25T19:25:47.886Z,41.60
2018-02-25T19:28:23.670Z,41.90
2018-02-25T19:30:52.778Z,42.30
2018-02-25T19:33:32.118Z,42.60
2018-02-25T19:36:10.111Z,42.50
2018-02-25T19:38:48.114Z,42.60
2018-02-25T19:41:27.634Z,42.50
2018-02-25T19:43:58.370Z,42.40
2018-02-25T19:46:31.722Z,42.40
2018-02-25T19:49:00.318Z,42.50
2018-02-25T19:51:30.350Z,42.20
2018-02-25T19:54:00.390Z,41.60
2018-02-25T19:56:29.390Z,41.30
2018-02-25T19:58:58.378Z,41.30
2018-02-25T20:01:31.646Z,40.90
2018-02-25T20:04:05.342Z,40.20
2018-02-25T20:06:39.866Z,40.20
2018-02-25T20:09:08.788Z,40.70
2018-02-25T20:11:41.825Z,40.40
2018-02-25T20:14:10.902Z,39.70
2018-02-25T20:16:40.870Z,40.10
2018-02-25T20:19:10.734Z,39.10
2018-02-25T20:21:39.754Z,39.10
2018-02-25T20:24:14.310Z,39.20
2018-02-25T20:26:46.230Z,39.10
2018-02-25T20:29:16.026Z,39.30
2018-02-25T20:31:45.054Z,39.80
2018-02-25T20:34:13.846Z,39.40
2018-02-25T20:36:46.104Z,39.50
2018-02-25T20:39:15.097Z,39.40
2018-02-25T20:41:48.541Z,39.80
2018-02-25T20:44:16.570Z,39.60
2018-02-25T20:46:44.646Z,39.70
2018-02-25T20:49:18.352Z,39.60
2018-02-25T20:51:47.166Z,41.00
2018-02-25T20:54:15.206Z,40.90
2018-02-25T20:56:44.970Z,40.60
2018-02-25T20:59:15.194Z,40.50
2018-02-25T21:01:48.094Z,40.80
2018-02-25T21:04:16.133Z,41.30
2018-02-25T21:06:44.173Z,41.50
2018-02-25T21:09:15.006Z,41.40
2018-02-25T21:11:43.942Z,41.40
2018-02-25T21:14:12.882Z,40.80
2018-02-25T21:16:41.853Z,41.10
2018-02-25T21:19:10.827Z,40.90
2018-02-25T21:21:38.854Z,41.00
2018-02-25T21:24:07.890Z,40.90
2018-02-25T21:26:39.678Z,41.10
2018-02-25T21:29:08.642Z,41.00
2018-02-25T21:31:36.670Z,41.30
2018-02-25T21:34:06.634Z,42.20
2018-02-25T21:36:36.378Z,41.90
2018-02-25T21:39:04.434Z,41.90
2018-02-25T21:41:40.022Z,41.50
2018-02-25T21:44:09.982Z,41.50
2018-02-25T21:46:38.962Z,42.00
2018-02-25T21:49:08.044Z,42.30
2018-02-25T21:51:36.165Z,42.20
2018-02-25T21:54:17.585Z,42.50
2018-02-25T21:56:52.318Z,43.10
2018-02-25T21:59:38.922Z,43.20
2018-02-25T22:02:17.529Z,43.60
2018-02-25T22:04:57.181Z,43.70
2018-02-25T22:07:30.142Z,43.90
2018-02-25T22:10:00.186Z,43.70
2018-02-25T22:12:35.841Z,43.60
2018-02-25T22:15:07.873Z,43.40
2018-02-25T22:17:36.901Z,43.80
2018-02-25T22:20:04.938Z,44.30
2018-02-25T22:22:33.281Z,44.10
2018-02-25T22:25:07.466Z,44.30
2018-02-25T22:27:35.510Z,44.20
2018-02-25T22:30:16.858Z,44.30
2018-02-25T22:32:45.685Z,44.60
2018-02-25T22:35:15.649Z,44.60
2018-02-25T22:37:57.109Z,45.20
2018-02-25T22:40:30.637Z,45.10
2018-02-25T22:42:59.489Z,45.70
2018-02-25T22:45:27.689Z,46.10
2018-02-25T22:47:55.816Z,46.40
2018-02-25T22:50:28.357Z,46.70
2018-02-25T22:52:56.429Z,46.60
2018-02-25T22:55:28.417Z,47.60
2018-02-25T22:58:01.506Z,47.40
2018-02-25T23:00:30.592Z,47.40
2018-02-25T23:03:08.513Z,47.10
2018-02-25T23:05:40.637Z,48.00
2018-02-25T23:08:13.718Z,47.60
2018-02-25T23:10:42.561Z,47.80
2018-02-25T23:13:15.984Z,47.80
2018-02-25T23:15:47.253Z,48.20
2018-02-25T23:18:16.257Z,47.50
2018-02-25T23:20:54.957Z,47.60
2018-02-25T23:23:27.144Z,48.70
2018-02-25T23:25:57.144Z,48.70
2018-02-25T23:28:28.073Z,49.40
2018-02-25T23:30:57.745Z,49.90
2018-02-25T23:33:37.681Z,49.80
2018-02-25T23:36:06.633Z,50.10
2018-02-25T23:38:40.053Z,50.60
2018-02-25T23:41:12.081Z,50.80
2018-02-25T23:43:45.305Z,51.90
2018-02-25T23:46:20.276Z,51.20
2018-02-25T23:48:48.420Z,50.40
2018-02-25T23:51:28.245Z,50.30
2018-02-25T23:53:56.324Z,50.80
2018-02-25T23:56:24.390Z,51.10
2018-02-25T23:58:55.409Z,51.20
